sensor_id;sensor_type;location;lat;lon;timestamp;pressure;altitude;pressure_sealevel;temperature;humidity
69630;BME280;56857;52.212;5.496;2023-02-01T00:00:25;101959.50;;;5.15;100.00
69630;BME280;56857;52.212;5.496;2023-02-01T00:02:51;101956.13;;;5.13;100.00
69630;BME280;56857;52.212;5.496;2023-02-01T00:05:16;101962.97;;;5.15;100.00
69630;BME280;56857;52.212;5.496;2023-02-01T00:07:41;101961.91;;;5.18;100.00
69630;BME280;56857;52.212;5.496;2023-02-01T00:10:07;101954.75;;;5.20;100.00
69630;BME280;56857;52.212;5.496;2023-02-01T00:12:33;101953.81;;;5.21;100.00
69630;BME280;56857;52.212;5.496;2023-02-01T00:14:58;101957.16;;;5.23;100.00
69630;BME280;56857;52.212;5.496;2023-02-01T00:17:24;101951.81;;;5.24;100.00
69630;BME280;56857;52.212;5.496;2023-02-01T00:19:49;101957.06;;;5.24;100.00
69630;BME280;56857;52.212;5.496;2023-02-01T00:22:15;101952.66;;;5.25;100.00
69630;BME280;56857;52.212;5.496;2023-02-01T00:24:40;101945.59;;;5.25;100.00
69630;BME280;56857;52.212;5.496;2023-02-01T00:27:05;101947.25;;;5.26;100.00
69630;BME280;56857;52.212;5.496;2023-02-01T00:29:31;101946.34;;;5.27;100.00
69630;BME280;56857;52.212;5.496;2023-02-01T00:31:56;101934.97;;;5.27;100.00
69630;BME280;56857;52.212;5.496;2023-02-01T00:34:21;101949.81;;;5.28;100.00
69630;BME280;56857;52.212;5.496;2023-02-01T00:36:47;101947.91;;;5.30;100.00
69630;BME280;56857;52.212;5.496;2023-02-01T00:39:13;101943.50;;;5.30;100.00
69630;BME280;56857;52.212;5.496;2023-02-01T00:41:38;101941.69;;;5.31;100.00
69630;BME280;56857;52.212;5.496;2023-02-01T00:44:04;101937.28;;;5.31;100.00
69630;BME280;56857;52.212;5.496;2023-02-01T00:46:29;101945.16;;;5.31;100.00
69630;BME280;56857;52.212;5.496;2023-02-01T00:48:55;101946.84;;;5.32;100.00
69630;BME280;56857;52.212;5.496;2023-02-01T00:51:23;101954.72;;;5.32;100.00
69630;BME280;56857;52.212;5.496;2023-02-01T00:53:50;101945.91;;;5.33;100.00
69630;BME280;56857;52.212;5.496;2023-02-01T00:56:15;101953.78;;;5.33;100.00
69630;BME280;56857;52.212;5.496;2023-02-01T00:58:41;101958.00;;;5.36;100.00
69630;BME280;56857;52.212;5.496;2023-02-01T01:01:10;101952.75;;;5.36;100.00
69630;BME280;56857;52.212;5.496;2023-02-01T01:03:38;101955.25;;;5.38;100.00
69630;BME280;56857;52.212;5.496;2023-02-01T01:06:07;101949.03;;;5.39;100.00
69630;BME280;56857;52.212;5.496;2023-02-01T01:08:34;101940.09;;;5.41;100.00
69630;BME280;56857;52.212;5.496;2023-02-01T01:11:05;101932.31;;;5.40;100.00
69630;BME280;56857;52.212;5.496;2023-02-01T01:13:31;101925.97;;;5.42;100.00
69630;BME280;56857;52.212;5.496;2023-02-01T01:15:56;101915.59;;;5.41;100.00
69630;BME280;56857;52.212;5.496;2023-02-01T01:18:21;101922.66;;;5.40;100.00
69630;BME280;56857;52.212;5.496;2023-02-01T01:20:47;101920.09;;;5.39;100.00
69630;BME280;56857;52.212;5.496;2023-02-01T01:23:12;101924.44;;;5.40;100.00
69630;BME280;56857;52.212;5.496;2023-02-01T01:25:39;101918.09;;;5.42;100.00
69630;BME280;56857;52.212;5.496;2023-02-01T01:28:05;101921.59;;;5.43;100.00
69630;BME280;56857;52.212;5.496;2023-02-01T01:30:30;101918.22;;;5.41;100.00
69630;BME280;56857;52.212;5.496;2023-02-01T01:32:56;101912.97;;;5.41;100.00
69630;BME280;56857;52.212;5.496;2023-02-01T01:35:21;101909.50;;;5.40;100.00
69630;BME280;56857;52.212;5.496;2023-02-01T01:37:46;101900.56;;;5.43;100.00
69630;BME280;56857;52.212;5.496;2023-02-01T01:40:12;101910.72;;;5.47;100.00
69630;BME280;56857;52.212;5.496;2023-02-01T01:42:39;101909.06;;;5.46;100.00
69630;BME280;56857;52.212;5.496;2023-02-01T01:47:43;101911.56;;;5.48;100.00
69630;BME280;56857;52.212;5.496;2023-02-01T01:50:12;101920.28;;;5.48;100.00
69630;BME280;56857;52.212;5.496;2023-02-01T01:52:39;101908.50;;;5.54;100.00
69630;BME280;56857;52.212;5.496;2023-02-01T01:55:06;101910.91;;;5.57;100.00
69630;BME280;56857;52.212;5.496;2023-02-01T01:57:37;101911.75;;;5.57;100.00
69630;BME280;56857;52.212;5.496;2023-02-01T02:00:11;101907.00;;;5.63;100.00
69630;BME280;56857;52.212;5.496;2023-02-01T02:02:38;101892.88;;;5.64;100.00
69630;BME280;56857;52.212;5.496;2023-02-01T02:05:05;101889.53;;;5.62;100.00
69630;BME280;56857;52.212;5.496;2023-02-01T02:07:37;101885.00;;;5.64;100.00
69630;BME280;56857;52.212;5.496;2023-02-01T02:10:05;101889.09;;;5.68;100.00
69630;BME280;56857;52.212;5.496;2023-02-01T02:12:32;101883.72;;;5.69;100.00
69630;BME280;56857;52.212;5.496;2023-02-01T02:14:58;101885.38;;;5.70;100.00
69630;BME280;56857;52.212;5.496;2023-02-01T02:17:48;101884.44;;;5.71;100.00
69630;BME280;56857;52.212;5.496;2023-02-01T02:23:11;101881.47;;;5.76;100.00
69630;BME280;56857;52.212;5.496;2023-02-01T02:31:54;101871.22;;;5.84;100.00
69630;BME280;56857;52.212;5.496;2023-02-01T02:34:44;101867.53;;;5.87;100.00
69630;BME280;56857;52.212;5.496;2023-02-01T02:37:33;101852.47;;;5.89;100.00
69630;BME280;56857;52.212;5.496;2023-02-01T02:40:15;101854.03;;;5.91;100.00
69630;BME280;56857;52.212;5.496;2023-02-01T02:46:01;101851.41;;;5.91;100.00
69630;BME280;56857;52.212;5.496;2023-02-01T02:48:47;101838.38;;;5.90;100.00
69630;BME280;56857;52.212;5.496;2023-02-01T02:51:28;101840.81;;;5.93;100.00
69630;BME280;56857;52.212;5.496;2023-02-01T02:56:25;101830.75;;;5.98;100.00
69630;BME280;56857;52.212;5.496;2023-02-01T02:58:52;101826.47;;;5.97;100.00
69630;BME280;56857;52.212;5.496;2023-02-01T03:01:19;101818.56;;;5.97;100.00
69630;BME280;56857;52.212;5.496;2023-02-01T03:03:46;101815.09;;;5.96;100.00
69630;BME280;56857;52.212;5.496;2023-02-01T03:06:15;101824.78;;;5.96;100.00
69630;BME280;56857;52.212;5.496;2023-02-01T03:08:41;101844.16;;;5.95;100.00
69630;BME280;56857;52.212;5.496;2023-02-01T03:11:10;101826.88;;;5.91;100.00
69630;BME280;56857;52.212;5.496;2023-02-01T03:18:56;101824.72;;;5.85;100.00
69630;BME280;56857;52.212;5.496;2023-02-01T03:24:03;101837.03;;;5.84;100.00
69630;BME280;56857;52.212;5.496;2023-02-01T03:26:33;101835.47;;;5.81;100.00
69630;BME280;56857;52.212;5.496;2023-02-01T03:29:29;101834.00;;;5.77;100.00
69630;BME280;56857;52.212;5.496;2023-02-01T03:31:57;101825.16;;;5.78;100.00
69630;BME280;56857;52.212;5.496;2023-02-01T03:34:22;101834.72;;;5.79;100.00
69630;BME280;56857;52.212;5.496;2023-02-01T03:36:51;101831.16;;;5.80;100.00
69630;BME280;56857;52.212;5.496;2023-02-01T03:41:57;101830.66;;;5.75;100.00
69630;BME280;56857;52.212;5.496;2023-02-01T03:44:40;101840.44;;;5.73;100.00
69630;BME280;56857;52.212;5.496;2023-02-01T03:49:37;101834.56;;;5.70;100.00
69630;BME280;56857;52.212;5.496;2023-02-01T03:52:06;101827.88;;;5.66;100.00
69630;BME280;56857;52.212;5.496;2023-02-01T03:54:36;101841.00;;;5.66;100.00
69630;BME280;56857;52.212;5.496;2023-02-01T03:57:06;101834.09;;;5.65;100.00
69630;BME280;56857;52.212;5.496;2023-02-01T03:59:33;101829.75;;;5.64;100.00
69630;BME280;56857;52.212;5.496;2023-02-01T04:01:58;101835.00;;;5.64;100.00
69630;BME280;56857;52.212;5.496;2023-02-01T04:04:23;101833.97;;;5.66;100.00
69630;BME280;56857;52.212;5.496;2023-02-01T04:06:49;101847.72;;;5.70;100.00
69630;BME280;56857;52.212;5.496;2023-02-01T04:09:15;101833.72;;;5.69;100.00
69630;BME280;56857;52.212;5.496;2023-02-01T04:11:40;101832.78;;;5.70;100.00
69630;BME280;56857;52.212;5.496;2023-02-01T04:14:06;101833.50;;;5.72;100.00
69630;BME280;56857;52.212;5.496;2023-02-01T04:16:32;101835.91;;;5.75;100.00
69630;BME280;56857;52.212;5.496;2023-02-01T04:18:58;101838.44;;;5.77;100.00
69630;BME280;56857;52.212;5.496;2023-02-01T04:21:25;101842.63;;;5.79;100.00
69630;BME280;56857;52.212;5.496;2023-02-01T04:23:50;101845.03;;;5.82;100.00
69630;BME280;56857;52.212;5.496;2023-02-01T04:26:17;101840.72;;;5.81;100.00
69630;BME280;56857;52.212;5.496;2023-02-01T04:28:42;101833.66;;;5.82;100.00
69630;BME280;56857;52.212;5.496;2023-02-01T04:31:08;101834.50;;;5.82;100.00
69630;BME280;56857;52.212;5.496;2023-02-01T04:33:33;101831.88;;;5.82;100.00
69630;BME280;56857;52.212;5.496;2023-02-01T04:36:00;101836.19;;;5.84;100.00
69630;BME280;56857;52.212;5.496;2023-02-01T04:38:25;101833.66;;;5.82;100.00
69630;BME280;56857;52.212;5.496;2023-02-01T04:40:50;101833.78;;;5.80;100.00
69630;BME280;56857;52.212;5.496;2023-02-01T04:43:16;101838.19;;;5.80;100.00
69630;BME280;56857;52.212;5.496;2023-02-01T04:45:47;101832.22;;;5.78;100.00
69630;BME280;56857;52.212;5.496;2023-02-01T04:48:12;101827.66;;;5.80;100.00
69630;BME280;56857;52.212;5.496;2023-02-01T04:50:38;101836.41;;;5.80;100.00
69630;BME280;56857;52.212;5.496;2023-02-01T04:53:03;101829.38;;;5.81;100.00
69630;BME280;56857;52.212;5.496;2023-02-01T04:55:28;101838.09;;;5.81;100.00
69630;BME280;56857;52.212;5.496;2023-02-01T04:57:54;101848.38;;;5.85;100.00
69630;BME280;56857;52.212;5.496;2023-02-01T05:00:19;101836.81;;;5.87;100.00
69630;BME280;56857;52.212;5.496;2023-02-01T05:02:45;101835.84;;;5.88;100.00
69630;BME280;56857;52.212;5.496;2023-02-01T05:05:10;101833.81;;;5.92;100.00
69630;BME280;56857;52.212;5.496;2023-02-01T05:07:35;101831.19;;;5.92;100.00
69630;BME280;56857;52.212;5.496;2023-02-01T05:10:01;101820.88;;;5.89;100.00
69630;BME280;56857;52.212;5.496;2023-02-01T05:12:26;101830.34;;;5.91;100.00
69630;BME280;56857;52.212;5.496;2023-02-01T05:14:51;101825.84;;;5.93;100.00
69630;BME280;56857;52.212;5.496;2023-02-01T05:17:17;101824.13;;;5.92;100.00
69630;BME280;56857;52.212;5.496;2023-02-01T05:19:43;101822.38;;;5.93;100.00
69630;BME280;56857;52.212;5.496;2023-02-01T05:22:09;101817.13;;;5.93;100.00
69630;BME280;56857;52.212;5.496;2023-02-01T05:24:34;101816.22;;;5.92;100.00
69630;BME280;56857;52.212;5.496;2023-02-01T05:26:59;101810.13;;;5.92;100.00
69630;BME280;56857;52.212;5.496;2023-02-01T05:29:24;101826.75;;;5.92;100.00
69630;BME280;56857;52.212;5.496;2023-02-01T05:31:51;101826.75;;;5.92;100.00
69630;BME280;56857;52.212;5.496;2023-02-01T05:34:16;101831.19;;;5.92;100.00
69630;BME280;56857;52.212;5.496;2023-02-01T05:36:42;101840.81;;;5.93;100.00
69630;BME280;56857;52.212;5.496;2023-02-01T05:39:07;101829.31;;;5.94;100.00
69630;BME280;56857;52.212;5.496;2023-02-01T05:41:33;101845.94;;;5.94;100.00
69630;BME280;56857;52.212;5.496;2023-02-01T05:43:58;101844.28;;;5.93;100.00
69630;BME280;56857;52.212;5.496;2023-02-01T05:46:24;101841.63;;;5.93;100.00
69630;BME280;56857;52.212;5.496;2023-02-01T05:48:49;101853.00;;;5.94;100.00
69630;BME280;56857;52.212;5.496;2023-02-01T05:51:14;101847.59;;;5.95;100.00
69630;BME280;56857;52.212;5.496;2023-02-01T05:53:39;101835.41;;;5.94;100.00
69630;BME280;56857;52.212;5.496;2023-02-01T05:56:05;101838.03;;;5.94;100.00
69630;BME280;56857;52.212;5.496;2023-02-01T05:58:31;101830.16;;;5.94;100.00
69630;BME280;56857;52.212;5.496;2023-02-01T06:00:59;101825.72;;;5.95;100.00
69630;BME280;56857;52.212;5.496;2023-02-01T06:03:24;101816.03;;;5.95;100.00
69630;BME280;56857;52.212;5.496;2023-02-01T06:05:50;101832.56;;;5.97;100.00
69630;BME280;56857;52.212;5.496;2023-02-01T06:08:15;101831.72;;;5.97;100.00
69630;BME280;56857;52.212;5.496;2023-02-01T06:10:41;101848.47;;;5.96;100.00
69630;BME280;56857;52.212;5.496;2023-02-01T06:13:06;101845.09;;;5.94;100.00
69630;BME280;56857;52.212;5.496;2023-02-01T06:15:31;101827.50;;;5.94;100.00
69630;BME280;56857;52.212;5.496;2023-02-01T06:17:56;101836.25;;;5.95;100.00
69630;BME280;56857;52.212;5.496;2023-02-01T06:20:22;101836.25;;;5.95;100.00
69630;BME280;56857;52.212;5.496;2023-02-01T06:22:48;101848.47;;;5.96;100.00
69630;BME280;56857;52.212;5.496;2023-02-01T06:25:14;101845.72;;;5.97;100.00
69630;BME280;56857;52.212;5.496;2023-02-01T06:27:39;101845.72;;;5.97;100.00
69630;BME280;56857;52.212;5.496;2023-02-01T06:30:06;101850.25;;;5.95;100.00
69630;BME280;56857;52.212;5.496;2023-02-01T06:32:32;101852.03;;;5.95;100.00
69630;BME280;56857;52.212;5.496;2023-02-01T06:34:57;101846.25;;;5.90;100.00
69630;BME280;56857;52.212;5.496;2023-02-01T06:37:23;101843.72;;;5.88;100.00
69630;BME280;56857;52.212;5.496;2023-02-01T06:39:49;101848.25;;;5.86;100.00
69630;BME280;56857;52.212;5.496;2023-02-01T06:42:14;101845.84;;;5.83;100.00
69630;BME280;56857;52.212;5.496;2023-02-01T06:44:40;101845.03;;;5.82;100.00
69630;BME280;56857;52.212;5.496;2023-02-01T06:47:05;101847.78;;;5.81;100.00
69630;BME280;56857;52.212;5.496;2023-02-01T06:49:31;101849.91;;;5.76;100.00
69630;BME280;56857;52.212;5.496;2023-02-01T06:51:56;101856.13;;;5.75;100.00
69630;BME280;56857;52.212;5.496;2023-02-01T06:54:22;101850.97;;;5.73;100.00
69630;BME280;56857;52.212;5.496;2023-02-01T06:56:47;101854.69;;;5.71;100.00
69630;BME280;56857;52.212;5.496;2023-02-01T06:59:12;101854.91;;;5.68;100.00
69630;BME280;56857;52.212;5.496;2023-02-01T07:01:38;101847.94;;;5.67;100.00
69630;BME280;56857;52.212;5.496;2023-02-01T07:04:03;101848.91;;;5.66;100.00
69630;BME280;56857;52.212;5.496;2023-02-01T07:06:29;101847.34;;;5.63;100.00
69630;BME280;56857;52.212;5.496;2023-02-01T07:08:54;101850.81;;;5.64;100.00
69630;BME280;56857;52.212;5.496;2023-02-01T07:11:20;101847.34;;;5.63;100.00
69630;BME280;56857;52.212;5.496;2023-02-01T07:13:45;101847.25;;;5.65;100.00
69630;BME280;56857;52.212;5.496;2023-02-01T07:16:13;101848.06;;;5.65;100.00
69630;BME280;56857;52.212;5.496;2023-02-01T07:18:38;101856.66;;;5.67;100.00
69630;BME280;56857;52.212;5.496;2023-02-01T07:21:04;101857.41;;;5.69;100.00
69630;BME280;56857;52.212;5.496;2023-02-01T07:23:30;101860.78;;;5.71;100.00
69630;BME280;56857;52.212;5.496;2023-02-01T07:25:57;101856.44;;;5.70;100.00
69630;BME280;56857;52.212;5.496;2023-02-01T07:28:23;101848.56;;;5.70;100.00
69630;BME280;56857;52.212;5.496;2023-02-01T07:30:49;101851.19;;;5.70;100.00
69630;BME280;56857;52.212;5.496;2023-02-01T07:33:14;101850.34;;;5.70;100.00
69630;BME280;56857;52.212;5.496;2023-02-01T07:35:39;101852.97;;;5.70;100.00
69630;BME280;56857;52.212;5.496;2023-02-01T07:38:05;101853.94;;;5.69;100.00
69630;BME280;56857;52.212;5.496;2023-02-01T07:40:30;101855.75;;;5.68;100.00
69630;BME280;56857;52.212;5.496;2023-02-01T07:42:55;101857.41;;;5.69;100.00
69630;BME280;56857;52.212;5.496;2023-02-01T07:45:21;101860.03;;;5.69;100.00
69630;BME280;56857;52.212;5.496;2023-02-01T07:47:47;101866.88;;;5.72;100.00
69630;BME280;56857;52.212;5.496;2023-02-01T07:50:12;101858.97;;;5.72;100.00
69630;BME280;56857;52.212;5.496;2023-02-01T07:52:37;101867.72;;;5.72;100.00
69630;BME280;56857;52.212;5.496;2023-02-01T07:55:03;101877.03;;;5.76;100.00
69630;BME280;56857;52.212;5.496;2023-02-01T07:57:28;101879.59;;;5.78;100.00
69630;BME280;56857;52.212;5.496;2023-02-01T07:59:53;101872.53;;;5.78;100.00
69630;BME280;56857;52.212;5.496;2023-02-01T08:02:19;101874.09;;;5.81;100.00
69630;BME280;56857;52.212;5.496;2023-02-01T08:04:44;101874.94;;;5.81;100.00
69630;BME280;56857;52.212;5.496;2023-02-01T08:07:09;101873.88;;;5.84;100.00
69630;BME280;56857;52.212;5.496;2023-02-01T08:09:35;101879.13;;;5.84;100.00
69630;BME280;56857;52.212;5.496;2023-02-01T08:12:00;101881.84;;;5.82;100.00
69630;BME280;56857;52.212;5.496;2023-02-01T08:14:25;101885.22;;;5.85;100.00
69630;BME280;56857;52.212;5.496;2023-02-01T08:16:51;101881.63;;;5.86;100.00
69630;BME280;56857;52.212;5.496;2023-02-01T08:19:16;101876.16;;;5.89;100.00
69630;BME280;56857;52.212;5.496;2023-02-01T08:21:41;101873.22;;;5.93;100.00
69630;BME280;56857;52.212;5.496;2023-02-01T08:24:08;101869.53;;;5.96;100.00
69630;BME280;56857;52.212;5.496;2023-02-01T08:26:34;101870.97;;;6.00;100.00
69630;BME280;56857;52.212;5.496;2023-02-01T08:29:03;101868.94;;;6.03;100.00
69630;BME280;56857;52.212;5.496;2023-02-01T08:31:30;101865.13;;;6.08;100.00
69630;BME280;56857;52.212;5.496;2023-02-01T08:34:02;101857.81;;;6.11;100.00
69630;BME280;56857;52.212;5.496;2023-02-01T08:36:29;101865.50;;;6.14;100.00
69630;BME280;56857;52.212;5.496;2023-02-01T08:38:55;101859.16;;;6.17;100.00
69630;BME280;56857;52.212;5.496;2023-02-01T08:41:23;101854.63;;;6.19;100.00
69630;BME280;56857;52.212;5.496;2023-02-01T08:43:49;101861.56;;;6.20;100.00
69630;BME280;56857;52.212;5.496;2023-02-01T08:46:15;101851.63;;;6.23;100.00
69630;BME280;56857;52.212;5.496;2023-02-01T08:48:40;101857.50;;;6.27;100.00
69630;BME280;56857;52.212;5.496;2023-02-01T08:51:08;101855.59;;;6.29;100.00
69630;BME280;56857;52.212;5.496;2023-02-01T08:53:34;101851.06;;;6.31;100.00
69630;BME280;56857;52.212;5.496;2023-02-01T08:56:00;101849.88;;;6.35;100.00
69630;BME280;56857;52.212;5.496;2023-02-01T08:58:25;101842.72;;;6.37;100.00
69630;BME280;56857;52.212;5.496;2023-02-01T09:00:50;101842.47;;;6.40;100.00
69630;BME280;56857;52.212;5.496;2023-02-01T09:03:16;101839.59;;;6.43;100.00
69630;BME280;56857;52.212;5.496;2023-02-01T09:05:41;101842.84;;;6.47;100.00
69630;BME280;56857;52.212;5.496;2023-02-01T09:08:07;101846.81;;;6.53;100.00
69630;BME280;56857;52.212;5.496;2023-02-01T09:10:33;101854.09;;;6.60;100.00
69630;BME280;56857;52.212;5.496;2023-02-01T09:12:58;101833.97;;;6.70;100.00
69630;BME280;56857;52.212;5.496;2023-02-01T09:15:24;101854.47;;;6.78;100.00
69630;BME280;56857;52.212;5.496;2023-02-01T09:17:49;101850.25;;;6.87;100.00
69630;BME280;56857;52.212;5.496;2023-02-01T09:20:16;101842.84;;;6.92;100.00
69630;BME280;56857;52.212;5.496;2023-02-01T09:22:41;101833.72;;;6.96;100.00
69630;BME280;56857;52.212;5.496;2023-02-01T09:25:07;101836.94;;;7.00;100.00
69630;BME280;56857;52.212;5.496;2023-02-01T09:27:33;101849.44;;;6.97;100.00
69630;BME280;56857;52.212;5.496;2023-02-01T09:29:58;101834.56;;;6.96;100.00
69630;BME280;56857;52.212;5.496;2023-02-01T09:32:24;101855.78;;;6.95;100.00
69630;BME280;56857;52.212;5.496;2023-02-01T09:34:50;101857.59;;;6.94;100.00
69630;BME280;56857;52.212;5.496;2023-02-01T09:37:16;101857.81;;;6.91;100.00
69630;BME280;56857;52.212;5.496;2023-02-01T09:39:41;101850.03;;;6.90;100.00
69630;BME280;56857;52.212;5.496;2023-02-01T09:42:21;101842.34;;;6.87;100.00
69630;BME280;56857;52.212;5.496;2023-02-01T09:47:50;101839.84;;;6.85;100.00
69630;BME280;56857;52.212;5.496;2023-02-01T09:50:28;101839.72;;;6.87;100.00
69630;BME280;56857;52.212;5.496;2023-02-01T09:53:01;101846.78;;;6.86;100.00
69630;BME280;56857;52.212;5.496;2023-02-01T09:55:36;101835.56;;;6.84;100.00
69630;BME280;56857;52.212;5.496;2023-02-01T09:58:16;101837.22;;;6.85;100.00
69630;BME280;56857;52.212;5.496;2023-02-01T10:00:53;101828.47;;;6.85;100.00
69630;BME280;56857;52.212;5.496;2023-02-01T10:03:23;101837.47;;;6.82;100.00
69630;BME280;56857;52.212;5.496;2023-02-01T10:09:06;101837.94;;;6.76;100.00
69630;BME280;56857;52.212;5.496;2023-02-01T10:20:27;101821.53;;;6.61;100.00
69630;BME280;56857;52.212;5.496;2023-02-01T10:22:59;101839.38;;;6.58;100.00
69630;BME280;56857;52.212;5.496;2023-02-01T10:25:53;101852.78;;;6.55;100.00
69630;BME280;56857;52.212;5.496;2023-02-01T10:28:20;101846.31;;;6.47;100.00
69630;BME280;56857;52.212;5.496;2023-02-01T10:30:57;101844.16;;;6.41;100.00
69630;BME280;56857;52.212;5.496;2023-02-01T10:33:26;101842.72;;;6.37;100.00
69630;BME280;56857;52.212;5.496;2023-02-01T10:36:14;101832.28;;;6.36;100.00
69630;BME280;56857;52.212;5.496;2023-02-01T10:38:40;101831.56;;;6.34;100.00
69630;BME280;56857;52.212;5.496;2023-02-01T10:41:18;101817.69;;;6.32;100.00
69630;BME280;56857;52.212;5.496;2023-02-01T10:43:47;101813.13;;;6.34;100.00
69630;BME280;56857;52.212;5.496;2023-02-01T10:46:13;101813.13;;;6.34;100.00
69630;BME280;56857;52.212;5.496;2023-02-01T10:48:38;101804.88;;;6.38;100.00
69630;BME280;56857;52.212;5.496;2023-02-01T10:51:12;101812.03;;;6.36;100.00
69630;BME280;56857;52.212;5.496;2023-02-01T10:54:03;101815.41;;;6.38;100.00
69630;BME280;56857;52.212;5.496;2023-02-01T10:56:29;101807.50;;;6.38;100.00
69630;BME280;56857;52.212;5.496;2023-02-01T10:59:15;101812.63;;;6.40;100.00
69630;BME280;56857;52.212;5.496;2023-02-01T11:01:42;101810.63;;;6.43;100.00
69630;BME280;56857;52.212;5.496;2023-02-01T11:04:13;101805.22;;;6.45;100.00
69630;BME280;56857;52.212;5.496;2023-02-01T11:06:40;101805.97;;;6.47;100.00
69630;BME280;56857;52.212;5.496;2023-02-01T11:11:32;101810.16;;;6.49;100.00
69630;BME280;56857;52.212;5.496;2023-02-01T11:14:00;101799.50;;;6.51;100.00
69630;BME280;56857;52.212;5.496;2023-02-01T11:16:33;101778.19;;;6.54;100.00
69630;BME280;56857;52.212;5.496;2023-02-01T11:18:59;101781.41;;;6.58;100.00
69630;BME280;56857;52.212;5.496;2023-02-01T11:21:24;101792.78;;;6.58;100.00
69630;BME280;56857;52.212;5.496;2023-02-01T11:23:50;101798.03;;;6.58;100.00
69630;BME280;56857;52.212;5.496;2023-02-01T11:26:22;101796.25;;;6.59;100.00
69630;BME280;56857;52.212;5.496;2023-02-01T11:29:13;101802.38;;;6.59;100.00
69630;BME280;56857;52.212;5.496;2023-02-01T11:31:40;101789.81;;;6.63;100.00
69630;BME280;56857;52.212;5.496;2023-02-01T11:34:15;101793.13;;;6.65;100.00
69630;BME280;56857;52.212;5.496;2023-02-01T11:36:45;101798.06;;;6.69;100.00
69630;BME280;56857;52.212;5.496;2023-02-01T11:39:28;101794.94;;;6.76;100.00
69630;BME280;56857;52.212;5.496;2023-02-01T11:46:55;101798.88;;;6.92;100.00
69630;BME280;56857;52.212;5.496;2023-02-01T11:49:25;101789.88;;;6.95;100.00
69630;BME280;56857;52.212;5.496;2023-02-01T11:52:13;101800.53;;;6.93;100.00
69630;BME280;56857;52.212;5.496;2023-02-01T11:55:01;101797.06;;;6.93;100.00
69630;BME280;56857;52.212;5.496;2023-02-01T12:00:49;101800.06;;;6.88;100.00
69630;BME280;56857;52.212;5.496;2023-02-01T12:03:28;101791.94;;;6.91;100.00
69630;BME280;56857;52.212;5.496;2023-02-01T12:06:20;101783.44;;;6.88;100.00
69630;BME280;56857;52.212;5.496;2023-02-01T12:14:28;101767.56;;;6.99;100.00
69630;BME280;56857;52.212;5.496;2023-02-01T12:28:33;101779.41;;;7.16;100.00
69630;BME280;56857;52.212;5.496;2023-02-01T12:31:19;101783.00;;;7.15;100.00
69630;BME280;56857;52.212;5.496;2023-02-01T12:37:10;101789.09;;;7.15;100.00
69630;BME280;56857;52.212;5.496;2023-02-01T12:40:11;101767.19;;;7.15;100.00
69630;BME280;56857;52.212;5.496;2023-02-01T12:42:47;101781.19;;;7.15;100.00
69630;BME280;56857;52.212;5.496;2023-02-01T12:45:38;101771.63;;;7.14;100.00
69630;BME280;56857;52.212;5.496;2023-02-01T12:50:50;101773.53;;;7.12;100.00
69630;BME280;56857;52.212;5.496;2023-02-01T12:53:23;101776.91;;;7.14;100.00
69630;BME280;56857;52.212;5.496;2023-02-01T12:55:53;101781.19;;;7.15;100.00
69630;BME280;56857;52.212;5.496;2023-02-01T13:01:12;101774.97;;;7.16;100.00
69630;BME280;56857;52.212;5.496;2023-02-01T13:03:54;101767.06;;;7.16;100.00
69630;BME280;56857;52.212;5.496;2023-02-01T13:06:34;101775.66;;;7.18;100.00
69630;BME280;56857;52.212;5.496;2023-02-01T13:09:05;101773.91;;;7.19;100.00
69630;BME280;56857;52.212;5.496;2023-02-01T13:11:40;101787.91;;;7.19;100.00
69630;BME280;56857;52.212;5.496;2023-02-01T13:14:28;101775.31;;;7.23;100.00
69630;BME280;56857;52.212;5.496;2023-02-01T13:17:10;101786.69;;;7.24;100.00
69630;BME280;56857;52.212;5.496;2023-02-01T13:22:28;101784.88;;;7.24;100.00
69630;BME280;56857;52.212;5.496;2023-02-01T13:28:03;101785.47;;;7.28;100.00
69630;BME280;56857;52.212;5.496;2023-02-01T13:30:50;101776.88;;;7.26;100.00
69630;BME280;56857;52.212;5.496;2023-02-01T13:36:19;101788.13;;;7.28;100.00
69630;BME280;56857;52.212;5.496;2023-02-01T13:41:52;101795.09;;;7.29;100.00
69630;BME280;56857;52.212;5.496;2023-02-01T13:44:34;101792.31;;;7.30;100.00
69630;BME280;56857;52.212;5.496;2023-02-01T13:47:03;101789.56;;;7.32;100.00
69630;BME280;56857;52.212;5.496;2023-02-01T13:49:38;101777.22;;;7.32;100.00
69630;BME280;56857;52.212;5.496;2023-02-01T13:52:05;101788.44;;;7.34;100.00
69630;BME280;56857;52.212;5.496;2023-02-01T13:54:33;101786.69;;;7.35;100.00
69630;BME280;56857;52.212;5.496;2023-02-01T13:57:01;101791.81;;;7.36;100.00
69630;BME280;56857;52.212;5.496;2023-02-01T13:59:49;101795.28;;;7.37;100.00
69630;BME280;56857;52.212;5.496;2023-02-01T14:05:03;101781.00;;;7.39;100.00
69630;BME280;56857;52.212;5.496;2023-02-01T14:07:28;101775.63;;;7.41;100.00
69630;BME280;56857;52.212;5.496;2023-02-01T14:09:55;101772.00;;;7.42;100.00
69630;BME280;56857;52.212;5.496;2023-02-01T14:12:48;101789.50;;;7.43;100.00
69630;BME280;56857;52.212;5.496;2023-02-01T14:15:25;101774.50;;;7.43;100.00
69630;BME280;56857;52.212;5.496;2023-02-01T14:17:51;101790.22;;;7.45;100.00
69630;BME280;56857;52.212;5.496;2023-02-01T14:20:42;101786.88;;;7.43;100.00
69630;BME280;56857;52.212;5.496;2023-02-01T14:23:13;101792.03;;;7.45;100.00
69630;BME280;56857;52.212;5.496;2023-02-01T14:25:40;101782.31;;;7.45;100.00
69630;BME280;56857;52.212;5.496;2023-02-01T14:28:22;101785.06;;;7.43;100.00
69630;BME280;56857;52.212;5.496;2023-02-01T14:30:48;101784.13;;;7.45;100.00
69630;BME280;56857;52.212;5.496;2023-02-01T14:33:23;101795.63;;;7.43;100.00
69630;BME280;56857;52.212;5.496;2023-02-01T14:36:10;101790.34;;;7.43;100.00